createdAt,value
2023-01-13T00:01:00.661Z,7.95
2023-01-13T00:03:27.821Z,8.18
2023-01-13T00:05:54.967Z,8.20
2023-01-13T00:08:22.114Z,7.85
2023-01-13T00:10:49.473Z,7.88
2023-01-13T00:13:16.776Z,7.38
2023-01-13T00:15:43.946Z,7.85
2023-01-13T00:18:11.184Z,7.50
2023-01-13T00:20:38.381Z,7.97
2023-01-13T00:23:05.534Z,6.88
2023-01-13T00:25:33.360Z,7.97
2023-01-13T00:28:00.508Z,7.57
2023-01-13T00:30:27.697Z,7.40
2023-01-13T00:32:54.864Z,7.60
2023-01-13T00:35:22.003Z,7.30
2023-01-13T00:37:49.113Z,7.40
2023-01-13T00:40:16.291Z,7.28
2023-01-13T00:43:02.022Z,7.88
2023-01-13T00:45:29.142Z,7.45
2023-01-13T00:47:56.275Z,6.68
2023-01-13T00:50:23.389Z,6.63
2023-01-13T00:52:50.571Z,6.93
2023-01-13T00:55:17.671Z,7.00
2023-01-13T00:57:44.816Z,6.45
2023-01-13T01:00:12.270Z,6.60
2023-01-13T01:02:39.450Z,7.35
2023-01-13T01:05:08.304Z,6.47
2023-01-13T01:07:35.454Z,6.70
2023-01-13T01:10:02.701Z,6.70
2023-01-13T01:12:29.811Z,6.13
2023-01-13T01:14:57.405Z,6.60
2023-01-13T01:17:24.531Z,6.22
2023-01-13T01:19:51.657Z,6.57
2023-01-13T01:22:18.855Z,6.40
2023-01-13T01:24:47.968Z,6.35
2023-01-13T01:27:15.106Z,6.40
2023-01-13T01:29:42.243Z,5.57
2023-01-13T01:32:09.366Z,6.95
2023-01-13T01:34:36.519Z,6.10
2023-01-13T01:37:03.683Z,6.45
2023-01-13T01:39:30.814Z,6.18
2023-01-13T01:42:16.653Z,6.03
2023-01-13T01:44:43.750Z,5.60
2023-01-13T01:47:15.873Z,5.38
2023-01-13T01:49:43.702Z,5.82
2023-01-13T01:52:17.194Z,5.18
2023-01-13T01:55:13.663Z,5.90
2023-01-13T01:57:46.329Z,5.95
2023-01-13T02:00:13.780Z,5.60
2023-01-13T02:02:42.028Z,5.32
2023-01-13T02:05:09.550Z,5.60
2023-01-13T02:07:37.789Z,6.15
2023-01-13T02:10:09.435Z,5.10
2023-01-13T02:12:37.247Z,5.45
2023-01-13T02:15:12.010Z,5.50
2023-01-13T02:17:46.713Z,5.55
2023-01-13T02:20:32.558Z,4.75
2023-01-13T02:23:30.961Z,5.22
2023-01-13T02:26:01.175Z,4.78
2023-01-13T02:29:06.801Z,5.38
2023-01-13T02:31:42.564Z,4.70
2023-01-13T02:36:39.716Z,5.15
2023-01-13T02:39:13.571Z,4.93
2023-01-13T02:42:02.275Z,4.70
2023-01-13T02:44:31.047Z,4.78
2023-01-13T02:46:58.211Z,4.85
2023-01-13T02:49:36.660Z,4.93
2023-01-13T02:52:25.734Z,4.45
2023-01-13T02:54:55.488Z,4.47
2023-01-13T02:57:22.948Z,4.28
2023-01-13T02:59:50.478Z,5.03
2023-01-13T03:02:20.446Z,5.18
2023-01-13T03:04:49.484Z,4.88
2023-01-13T03:07:26.054Z,4.60
2023-01-13T03:10:07.343Z,4.63
2023-01-13T03:12:38.559Z,4.40
2023-01-13T03:15:14.426Z,4.30
2023-01-13T03:20:13.584Z,3.95
2023-01-13T03:22:45.678Z,4.35
2023-01-13T03:25:16.500Z,5.00
2023-01-13T03:28:03.955Z,4.40
2023-01-13T03:30:41.073Z,4.88
2023-01-13T03:33:18.901Z,5.00
2023-01-13T03:35:47.878Z,4.20
2023-01-13T03:38:21.288Z,4.03
2023-01-13T03:40:52.919Z,4.00
2023-01-13T03:43:50.653Z,4.40
2023-01-13T03:46:22.630Z,3.97
2023-01-13T03:48:51.852Z,4.30
2023-01-13T03:51:20.180Z,4.40
2023-01-13T03:53:50.817Z,4.00
2023-01-13T03:56:22.402Z,4.55
2023-01-13T03:58:51.509Z,4.03
2023-01-13T04:01:48.247Z,5.15
2023-01-13T04:06:42.539Z,3.70
2023-01-13T04:09:12.932Z,3.53
2023-01-13T04:11:43.497Z,3.90
2023-01-13T04:14:11.421Z,3.90
2023-01-13T04:16:39.005Z,4.10
2023-01-13T04:19:06.577Z,3.97
2023-01-13T04:21:34.917Z,4.13
2023-01-13T04:24:02.289Z,3.85
2023-01-13T04:26:29.407Z,4.38
2023-01-13T04:28:56.620Z,4.05
2023-01-13T04:31:23.955Z,3.70
2023-01-13T04:33:51.222Z,4.10
2023-01-13T04:36:19.611Z,3.78
2023-01-13T04:38:46.812Z,4.15
2023-01-13T04:41:13.965Z,3.72
2023-01-13T04:43:41.080Z,4.80
2023-01-13T04:46:08.282Z,4.03
2023-01-13T04:48:35.475Z,4.22
2023-01-13T04:51:02.619Z,3.90
2023-01-13T04:53:29.807Z,4.38
2023-01-13T04:55:57.002Z,4.20
2023-01-13T04:58:24.209Z,3.67
2023-01-13T05:00:52.017Z,4.03
2023-01-13T05:03:19.280Z,4.15
2023-01-13T05:05:46.519Z,4.05
2023-01-13T05:08:13.703Z,3.80
2023-01-13T05:10:40.951Z,4.20
2023-01-13T05:13:28.133Z,3.78
2023-01-13T05:16:14.352Z,4.10
2023-01-13T05:21:28.511Z,4.28
2023-01-13T05:24:14.633Z,3.75
2023-01-13T05:26:41.883Z,4.22
2023-01-13T05:29:09.037Z,3.95
2023-01-13T05:31:36.244Z,5.07
2023-01-13T05:34:03.434Z,3.92
2023-01-13T05:36:30.547Z,4.60
2023-01-13T05:38:57.710Z,4.85
2023-01-13T05:41:43.707Z,4.20
2023-01-13T05:44:10.883Z,3.85
2023-01-13T05:46:38.023Z,4.57
2023-01-13T05:49:05.536Z,4.55
2023-01-13T05:51:32.716Z,4.25
2023-01-13T05:53:59.911Z,4.30
2023-01-13T05:56:27.105Z,4.00
2023-01-13T05:58:54.249Z,5.20
2023-01-13T06:01:21.422Z,4.90
2023-01-13T06:03:48.629Z,4.57
2023-01-13T06:06:15.761Z,4.75
2023-01-13T06:08:43.003Z,4.95
2023-01-13T06:11:10.215Z,5.50
2023-01-13T06:13:37.401Z,5.82
2023-01-13T06:16:04.657Z,7.60
2023-01-13T06:18:31.805Z,7.20
2023-01-13T06:20:59.103Z,6.47
2023-01-13T06:23:26.313Z,7.30
2023-01-13T06:25:56.668Z,7.13
2023-01-13T06:28:23.872Z,7.13
2023-01-13T06:30:53.663Z,6.25
2023-01-13T06:33:22.905Z,6.70
2023-01-13T06:35:52.187Z,7.05
2023-01-13T06:38:20.657Z,6.95
2023-01-13T06:40:48.084Z,6.78
2023-01-13T06:43:16.656Z,6.93
2023-01-13T06:45:53.126Z,6.22
2023-01-13T06:48:28.995Z,6.70
2023-01-13T06:53:23.308Z,6.65
2023-01-13T06:55:50.493Z,6.68
2023-01-13T06:58:17.748Z,6.82
2023-01-13T07:00:44.930Z,6.18
2023-01-13T07:03:16.268Z,7.28
2023-01-13T07:05:44.532Z,6.35
2023-01-13T07:08:11.793Z,6.80
2023-01-13T07:10:39.241Z,6.45
2023-01-13T07:13:26.158Z,6.88
2023-01-13T07:15:57.070Z,5.85
2023-01-13T07:18:24.562Z,6.43
2023-01-13T07:20:58.933Z,6.55
2023-01-13T07:23:27.745Z,6.68
2023-01-13T07:25:59.014Z,6.40
2023-01-13T07:28:26.701Z,7.30
2023-01-13T07:30:53.847Z,7.65
2023-01-13T07:33:21.200Z,6.72
2023-01-13T07:35:49.095Z,7.45
2023-01-13T07:38:16.844Z,6.60
2023-01-13T07:40:44.008Z,7.05
2023-01-13T07:43:31.578Z,6.95
2023-01-13T07:45:59.452Z,6.88
2023-01-13T07:48:29.904Z,7.30
2023-01-13T07:50:57.100Z,7.45
2023-01-13T07:53:25.898Z,7.22
2023-01-13T07:55:56.825Z,6.88
2023-01-13T07:58:24.679Z,7.32
2023-01-13T08:00:52.022Z,6.80
2023-01-13T08:03:19.201Z,6.25
2023-01-13T08:05:46.737Z,6.55
2023-01-13T08:08:13.913Z,6.20
2023-01-13T08:10:41.157Z,6.40
2023-01-13T08:13:17.562Z,7.13
2023-01-13T08:15:45.259Z,7.40
2023-01-13T08:18:12.797Z,8.38
2023-01-13T08:20:39.933Z,7.60
2023-01-13T08:23:07.635Z,8.23
2023-01-13T08:25:35.122Z,8.50
2023-01-13T08:28:02.622Z,9.98
2023-01-13T08:30:30.339Z,8.73
2023-01-13T08:32:57.592Z,8.98
2023-01-13T08:35:25.001Z,8.73
2023-01-13T08:37:52.471Z,7.95
2023-01-13T08:40:20.940Z,8.85
2023-01-13T08:42:48.809Z,8.30
2023-01-13T08:45:16.247Z,9.63
2023-01-13T08:47:43.439Z,10.77
2023-01-13T08:50:11.237Z,10.05
2023-01-13T08:52:38.383Z,9.52
2023-01-13T08:55:05.727Z,9.57
2023-01-13T08:57:32.875Z,9.68
2023-01-13T09:00:00.037Z,9.77
2023-01-13T09:02:27.357Z,9.65
2023-01-13T09:04:55.308Z,10.77
2023-01-13T09:07:22.612Z,9.65
2023-01-13T09:09:49.828Z,11.43
2023-01-13T09:12:35.713Z,10.57
2023-01-13T09:15:03.532Z,10.52
2023-01-13T09:17:31.947Z,9.70
2023-01-13T09:19:59.205Z,10.65
2023-01-13T09:22:29.117Z,9.13
2023-01-13T09:24:56.560Z,11.05
2023-01-13T09:27:23.774Z,10.45
2023-01-13T09:29:51.470Z,10.88
2023-01-13T09:32:18.631Z,10.98
2023-01-13T09:35:01.251Z,11.02
2023-01-13T09:37:34.084Z,10.98
2023-01-13T09:40:01.728Z,11.15
2023-01-13T09:42:53.601Z,10.75
2023-01-13T09:45:42.387Z,10.50
2023-01-13T09:48:24.837Z,10.35
2023-01-13T09:50:58.765Z,11.48
2023-01-13T09:53:28.752Z,11.82
2023-01-13T09:55:55.939Z,12.10
2023-01-13T09:58:24.889Z,11.25
2023-01-13T10:00:52.031Z,11.65
2023-01-13T10:03:24.663Z,11.35
2023-01-13T10:05:59.455Z,10.77
2023-01-13T10:08:29.343Z,10.77
2023-01-13T10:10:58.384Z,11.52
2023-01-13T10:13:30.077Z,12.68
2023-01-13T10:16:13.981Z,13.15
2023-01-13T10:18:50.324Z,14.23
2023-01-13T10:21:20.503Z,13.43
2023-01-13T10:23:47.939Z,13.27
2023-01-13T10:26:25.260Z,12.88
2023-01-13T10:28:55.825Z,12.45
2023-01-13T10:31:23.766Z,12.73
2023-01-13T10:33:58.829Z,12.57
2023-01-13T10:36:26.319Z,12.88
2023-01-13T10:38:53.584Z,13.32
2023-01-13T10:41:25.051Z,13.40
2023-01-13T10:43:52.212Z,12.55
2023-01-13T10:46:20.224Z,13.50
2023-01-13T10:48:47.412Z,12.70
2023-01-13T10:51:14.581Z,13.25
2023-01-13T10:53:46.503Z,13.68
2023-01-13T10:56:17.647Z,12.80
2023-01-13T10:58:44.817Z,13.10
2023-01-13T11:01:25.908Z,12.38
2023-01-13T11:03:56.802Z,12.55
2023-01-13T11:06:25.592Z,12.30
2023-01-13T11:08:55.171Z,12.52
2023-01-13T11:11:28.715Z,11.88
2023-01-13T11:14:16.101Z,12.23
2023-01-13T11:16:53.008Z,12.13
2023-01-13T11:19:21.885Z,12.38
2023-01-13T11:21:53.541Z,13.02
2023-01-13T11:24:20.705Z,12.45
2023-01-13T11:26:53.806Z,12.75
2023-01-13T11:29:23.727Z,11.48
2023-01-13T11:31:52.912Z,13.23
2023-01-13T11:34:22.901Z,14.07
2023-01-13T11:36:54.478Z,14.30
2023-01-13T11:39:40.569Z,17.83
2023-01-13T11:42:20.872Z,20.40
2023-01-13T11:45:05.742Z,20.40
2023-01-13T11:47:33.476Z,21.25
2023-01-13T11:50:01.269Z,23.08
2023-01-13T11:52:28.435Z,22.33
2023-01-13T11:54:58.390Z,21.77
2023-01-13T11:57:25.664Z,23.02
2023-01-13T12:00:05.641Z,25.52
2023-01-13T12:02:43.249Z,29.75
2023-01-13T12:05:23.804Z,28.08
2023-01-13T12:08:11.000Z,26.02
2023-01-13T12:10:40.904Z,24.65
2023-01-13T12:13:16.961Z,25.40
2023-01-13T12:15:59.454Z,24.13
2023-01-13T12:18:41.772Z,24.85
2023-01-13T12:21:29.557Z,22.92
2023-01-13T12:24:15.506Z,23.63
2023-01-13T12:26:45.336Z,23.30
2023-01-13T12:29:15.376Z,21.25
2023-01-13T12:31:43.943Z,21.88
2023-01-13T12:34:20.138Z,22.48
2023-01-13T12:36:51.422Z,21.02
2023-01-13T12:39:40.844Z,20.85
2023-01-13T12:42:53.607Z,20.60
2023-01-13T12:45:23.010Z,20.60
2023-01-13T12:47:50.191Z,20.30
2023-01-13T12:50:25.952Z,20.75
2023-01-13T12:55:32.733Z,19.80
2023-01-13T12:58:03.259Z,18.83
2023-01-13T13:00:38.459Z,19.52
2023-01-13T13:03:12.243Z,21.15
2023-01-13T13:05:42.616Z,18.98
2023-01-13T13:08:17.326Z,19.23
2023-01-13T13:10:59.800Z,18.65
2023-01-13T13:13:45.510Z,19.58
2023-01-13T13:16:29.467Z,18.92
2023-01-13T13:19:14.891Z,19.23
2023-01-13T13:22:00.483Z,17.37
2023-01-13T13:24:27.895Z,18.65
2023-01-13T13:26:55.219Z,19.15
2023-01-13T13:29:28.707Z,18.42
2023-01-13T13:32:02.090Z,19.40
2023-01-13T13:34:29.280Z,18.25
2023-01-13T13:37:02.359Z,19.40
2023-01-13T13:39:51.703Z,17.45
2023-01-13T13:42:40.367Z,17.15
2023-01-13T13:45:33.696Z,17.27
2023-01-13T13:48:03.060Z,16.80
2023-01-13T13:50:34.888Z,18.27
2023-01-13T13:53:05.354Z,17.02
2023-01-13T13:55:32.953Z,17.60
2023-01-13T13:58:01.633Z,17.95
2023-01-13T14:00:30.444Z,17.60
2023-01-13T14:03:00.461Z,17.50
2023-01-13T14:05:29.129Z,16.85
2023-01-13T14:08:01.547Z,16.25
2023-01-13T14:10:31.258Z,16.33
2023-01-13T14:13:00.120Z,16.40
2023-01-13T14:15:29.188Z,17.50
2023-01-13T14:17:56.460Z,16.08
2023-01-13T14:20:23.655Z,16.40
2023-01-13T14:22:53.035Z,15.95
2023-01-13T14:25:33.922Z,17.02
2023-01-13T14:28:05.862Z,15.43
2023-01-13T14:30:33.623Z,17.23
2023-01-13T14:33:00.927Z,16.33
2023-01-13T14:35:29.401Z,15.85
2023-01-13T14:38:02.176Z,15.82
2023-01-13T14:40:42.041Z,15.18
2023-01-13T14:43:12.794Z,16.02
2023-01-13T14:45:42.949Z,15.15
2023-01-13T14:48:10.295Z,16.20
2023-01-13T14:50:38.197Z,14.50
2023-01-13T14:53:25.265Z,16.25
2023-01-13T14:55:52.575Z,16.13
2023-01-13T14:58:23.191Z,15.65
2023-01-13T15:00:51.403Z,15.65
2023-01-13T15:03:19.954Z,14.80
2023-01-13T15:05:51.719Z,14.25
2023-01-13T15:08:30.576Z,14.52
2023-01-13T15:11:02.492Z,13.60
2023-01-13T15:13:31.935Z,13.88
2023-01-13T15:16:00.380Z,15.32
2023-01-13T15:18:27.845Z,14.98
2023-01-13T15:20:55.159Z,14.23
2023-01-13T15:23:22.470Z,15.75
2023-01-13T15:25:49.991Z,14.32
2023-01-13T15:28:19.218Z,15.07
2023-01-13T15:30:46.512Z,14.00
2023-01-13T15:33:14.096Z,13.57
2023-01-13T15:35:43.129Z,14.77
2023-01-13T15:38:12.085Z,14.20
2023-01-13T15:40:39.231Z,14.77
2023-01-13T15:43:25.042Z,14.77
2023-01-13T15:46:11.145Z,14.07
2023-01-13T15:48:38.372Z,14.35
2023-01-13T15:51:05.680Z,14.13
2023-01-13T15:53:36.784Z,14.60
2023-01-13T15:56:06.457Z,15.80
2023-01-13T15:58:33.634Z,15.32
2023-01-13T16:01:00.841Z,15.55
2023-01-13T16:03:28.027Z,15.20
2023-01-13T16:05:55.288Z,15.55
2023-01-13T16:08:23.523Z,13.85
2023-01-13T16:10:51.111Z,15.02
2023-01-13T16:13:18.385Z,14.80
2023-01-13T16:15:47.806Z,15.35
2023-01-13T16:18:19.047Z,14.73
2023-01-13T16:20:46.333Z,15.10
2023-01-13T16:23:13.760Z,14.80
2023-01-13T16:25:43.698Z,14.55
2023-01-13T16:28:19.823Z,15.15
2023-01-13T16:30:47.223Z,14.45
2023-01-13T16:33:14.651Z,14.18
2023-01-13T16:36:08.746Z,15.05
2023-01-13T16:38:29.138Z,14.05
2023-01-13T16:40:57.985Z,13.63
2023-01-13T16:43:25.181Z,15.32
2023-01-13T16:45:52.640Z,13.23
2023-01-13T16:48:23.675Z,15.50
2023-01-13T16:50:50.967Z,14.50
2023-01-13T16:53:18.198Z,15.32
2023-01-13T16:55:45.409Z,15.20
2023-01-13T16:58:17.832Z,14.98
2023-01-13T17:00:48.544Z,15.68
2023-01-13T17:03:16.427Z,14.88
2023-01-13T17:05:44.728Z,14.30
2023-01-13T17:08:17.680Z,15.55
2023-01-13T17:10:45.939Z,15.70
2023-01-13T17:13:16.767Z,14.32
2023-01-13T17:15:44.645Z,14.15
2023-01-13T17:18:13.282Z,14.13
2023-01-13T17:20:40.865Z,14.45
2023-01-13T17:23:08.173Z,14.50
2023-01-13T17:25:35.305Z,14.52
2023-01-13T17:28:02.558Z,13.85
2023-01-13T17:30:29.719Z,13.10
2023-01-13T17:32:56.890Z,13.20
2023-01-13T17:35:25.142Z,13.57
2023-01-13T17:37:53.225Z,13.32
2023-01-13T17:40:20.595Z,13.50
2023-01-13T17:42:47.763Z,13.45
2023-01-13T17:45:16.487Z,14.27
2023-01-13T17:47:43.632Z,13.88
2023-01-13T17:50:11.104Z,12.82
2023-01-13T17:52:38.297Z,14.27
2023-01-13T17:55:05.604Z,13.40
2023-01-13T17:57:32.781Z,15.05
2023-01-13T17:59:59.954Z,14.45
2023-01-13T18:02:27.347Z,13.60
2023-01-13T18:04:54.486Z,14.35
2023-01-13T18:07:21.750Z,13.93
2023-01-13T18:09:48.922Z,14.50
2023-01-13T18:12:16.085Z,14.02
2023-01-13T18:14:43.339Z,14.07
2023-01-13T18:17:10.857Z,13.88
2023-01-13T18:19:56.582Z,14.45
2023-01-13T18:22:42.702Z,14.40
2023-01-13T18:25:32.147Z,13.98
2023-01-13T18:28:02.983Z,13.10
2023-01-13T18:30:30.422Z,13.18
2023-01-13T18:32:58.101Z,13.55
2023-01-13T18:35:25.325Z,14.18
2023-01-13T18:37:52.490Z,13.07
2023-01-13T18:40:19.783Z,12.57
2023-01-13T18:42:54.726Z,13.43
2023-01-13T18:45:24.461Z,13.60
2023-01-13T18:47:51.955Z,13.65
2023-01-13T18:50:19.303Z,13.80
2023-01-13T18:52:46.662Z,18.58
2023-01-13T18:55:14.090Z,17.17
2023-01-13T18:57:41.368Z,14.90
2023-01-13T19:00:10.162Z,16.90
2023-01-13T19:02:37.502Z,16.30
2023-01-13T19:05:04.995Z,17.30
2023-01-13T19:07:34.752Z,15.68
2023-01-13T19:10:04.277Z,16.88
2023-01-13T19:12:31.572Z,15.52
2023-01-13T19:14:59.268Z,15.65
2023-01-13T19:17:27.487Z,15.05
2023-01-13T19:19:55.857Z,15.65
2023-01-13T19:22:27.193Z,15.68
2023-01-13T19:24:54.710Z,15.27
2023-01-13T19:27:22.408Z,15.95
2023-01-13T19:29:52.507Z,16.40
2023-01-13T19:32:22.869Z,16.40
2023-01-13T19:34:51.082Z,16.67
2023-01-13T19:37:18.763Z,17.00
2023-01-13T19:39:46.002Z,16.02
2023-01-13T19:42:32.814Z,15.10
2023-01-13T19:45:18.814Z,14.93
2023-01-13T19:47:47.146Z,14.85
2023-01-13T19:50:14.787Z,14.45
2023-01-13T19:52:44.744Z,14.75
2023-01-13T19:55:12.631Z,14.35
2023-01-13T19:57:40.350Z,14.68
2023-01-13T20:00:08.012Z,15.18
2023-01-13T20:02:36.891Z,14.68
2023-01-13T20:05:06.493Z,14.70
2023-01-13T20:07:35.206Z,13.65
2023-01-13T20:10:02.976Z,14.82
2023-01-13T20:12:30.189Z,15.18
2023-01-13T20:14:57.705Z,14.50
2023-01-13T20:17:29.061Z,14.48
2023-01-13T20:19:57.730Z,14.38
2023-01-13T20:22:25.032Z,14.50
2023-01-13T20:24:55.233Z,14.65
2023-01-13T20:27:23.755Z,14.85
2023-01-13T20:29:51.193Z,14.32
2023-01-13T20:32:18.353Z,14.50
2023-01-13T20:34:45.466Z,15.88
2023-01-13T20:37:12.657Z,15.45
2023-01-13T20:39:42.961Z,14.68
2023-01-13T20:42:29.051Z,14.00
2023-01-13T20:44:59.691Z,13.85
2023-01-13T20:47:27.516Z,14.75
2023-01-13T20:49:54.660Z,13.75
2023-01-13T20:52:21.892Z,14.40
2023-01-13T20:54:49.171Z,14.13
2023-01-13T20:57:16.370Z,14.05
2023-01-13T20:59:43.833Z,13.73
2023-01-13T21:02:16.041Z,13.90
2023-01-13T21:04:43.258Z,14.13
2023-01-13T21:07:10.733Z,12.88
2023-01-13T21:09:38.035Z,13.05
2023-01-13T21:12:24.287Z,13.27
2023-01-13T21:17:56.036Z,13.27
2023-01-13T21:20:23.216Z,13.27
2023-01-13T21:22:50.396Z,13.07
2023-01-13T21:25:18.463Z,13.07
2023-01-13T21:27:45.685Z,13.13
2023-01-13T21:30:14.930Z,14.48
2023-01-13T21:32:42.463Z,14.55
2023-01-13T21:35:11.229Z,13.88
2023-01-13T21:37:39.217Z,13.57
2023-01-13T21:40:07.549Z,14.38
2023-01-13T21:42:53.498Z,14.18
2023-01-13T21:45:39.533Z,14.10
2023-01-13T21:48:07.133Z,13.73
2023-01-13T21:50:34.323Z,13.73
2023-01-13T21:53:01.556Z,13.75
2023-01-13T21:55:28.906Z,12.68
2023-01-13T21:58:09.628Z,12.60
2023-01-13T22:00:36.754Z,14.38
2023-01-13T22:03:04.765Z,14.07
2023-01-13T22:05:31.959Z,13.88
2023-01-13T22:07:59.202Z,13.38
2023-01-13T22:10:27.503Z,13.25
2023-01-13T22:12:55.601Z,13.52
2023-01-13T22:15:25.970Z,13.68
2023-01-13T22:17:53.933Z,13.93
2023-01-13T22:20:21.444Z,14.02
2023-01-13T22:22:48.952Z,14.15
2023-01-13T22:25:16.787Z,13.25
2023-01-13T22:27:44.934Z,13.98
2023-01-13T22:30:13.942Z,13.35
2023-01-13T22:32:41.165Z,13.93
2023-01-13T22:35:09.535Z,13.50
2023-01-13T22:37:36.681Z,13.88
2023-01-13T22:40:04.759Z,13.30
2023-01-13T22:42:31.985Z,13.57
2023-01-13T22:44:59.110Z,14.13
2023-01-13T22:47:26.245Z,13.93
2023-01-13T22:49:53.440Z,14.02
2023-01-13T22:52:22.323Z,13.30
2023-01-13T22:54:49.512Z,13.20
2023-01-13T22:57:16.722Z,13.25
2023-01-13T22:59:43.963Z,14.32
2023-01-13T23:02:11.154Z,12.57
2023-01-13T23:04:38.450Z,12.93
2023-01-13T23:07:05.767Z,13.40
2023-01-13T23:09:33.225Z,13.82
2023-01-13T23:12:00.359Z,14.82
2023-01-13T23:14:27.762Z,14.18
2023-01-13T23:16:54.988Z,13.23
2023-01-13T23:19:22.481Z,13.77
2023-01-13T23:21:49.646Z,13.73
2023-01-13T23:24:16.841Z,13.23
2023-01-13T23:26:43.951Z,13.82
2023-01-13T23:29:12.119Z,13.30
2023-01-13T23:31:39.527Z,12.23
2023-01-13T23:34:06.738Z,12.52
2023-01-13T23:36:36.897Z,13.38
2023-01-13T23:39:04.476Z,12.07
2023-01-13T23:41:31.640Z,12.60
2023-01-13T23:44:00.196Z,11.52
2023-01-13T23:46:28.321Z,13.18
2023-01-13T23:48:55.971Z,12.27
2023-01-13T23:51:25.192Z,11.50
2023-01-13T23:53:52.487Z,12.50
2023-01-13T23:56:21.079Z,12.95
2023-01-13T23:58:48.663Z,12.30
